createdAt,value
2023-01-21T06:40:10.530Z,98158.75
2023-01-21T06:45:12.679Z,98153.56
2023-01-21T06:50:17.407Z,98185.84
2023-01-21T06:55:19.478Z,98168.25
2023-01-21T07:00:21.693Z,98183.22
2023-01-21T07:05:23.369Z,98194.66
2023-01-21T07:10:25.450Z,98199.69
2023-01-21T07:15:30.938Z,98165.56
2023-01-21T07:20:32.757Z,98206.31
2023-01-21T07:25:36.234Z,98205.19
2023-01-21T07:30:38.140Z,98206.53
2023-01-21T07:35:40.233Z,98197.97
2023-01-21T07:40:42.090Z,98194.56
2023-01-21T07:45:44.271Z,98209.47
2023-01-21T07:50:46.038Z,98205.56
2023-01-21T07:55:47.749Z,98215.59
2023-01-21T08:00:50.490Z,98220.09
2023-01-21T08:05:52.409Z,98212.66
2023-01-21T08:10:55.469Z,98207.25
2023-01-21T08:15:57.300Z,98203.69
2023-01-21T08:21:00.181Z,98212.88
2023-01-21T08:26:03.834Z,98231.63
2023-01-21T08:31:11.328Z,98232.06
2023-01-21T08:36:13.265Z,98215.22
2023-01-21T08:41:14.910Z,98252.19
2023-01-21T08:46:17.687Z,98226.50
2023-01-21T08:51:19.497Z,98241.84
2023-01-21T08:56:22.214Z,98257.69
2023-01-21T09:01:25.958Z,98261.72
2023-01-21T09:06:30.081Z,98272.88
2023-01-21T09:11:32.423Z,98275.50
2023-01-21T09:16:35.446Z,98283.28
2023-01-21T09:21:37.978Z,98247.78
2023-01-21T09:26:44.180Z,98298.88
2023-01-21T09:31:47.187Z,98289.66
2023-01-21T09:36:48.860Z,98304.06
2023-01-21T09:41:55.406Z,98302.59
2023-01-21T09:47:16.821Z,98291.47
2023-01-21T09:52:30.612Z,98310.84
2023-01-21T09:57:59.271Z,98286.22
2023-01-21T10:03:17.979Z,98298.56
2023-01-21T10:08:31.123Z,98301.81
2023-01-21T10:14:23.319Z,98301.75
2023-01-21T10:19:33.352Z,98291.88
2023-01-21T10:24:49.063Z,98280.72
2023-01-21T10:29:55.559Z,98271.97
2023-01-21T10:34:58.130Z,98282.81
2023-01-21T10:40:17.847Z,98279.25
2023-01-21T10:45:42.297Z,98287.97
2023-01-21T10:50:56.571Z,98288.75
2023-01-21T10:56:20.197Z,98277.81
2023-01-21T11:01:28.218Z,98256.94
2023-01-21T11:06:32.586Z,98278.22
2023-01-21T11:11:35.696Z,98271.94
2023-01-21T11:16:47.193Z,98277.56
2023-01-21T11:22:02.898Z,98264.25
2023-01-21T11:27:04.512Z,98269.66
2023-01-21T11:32:19.672Z,98271.75
2023-01-21T11:37:25.262Z,98269.97
2023-01-21T11:42:27.197Z,98253.72
2023-01-21T11:47:50.105Z,98231.06
2023-01-21T11:53:08.055Z,98251.47
2023-01-21T11:58:31.601Z,98247.09
2023-01-21T12:03:46.292Z,98234.47
2023-01-21T12:08:54.479Z,98228.56
2023-01-21T12:14:40.522Z,98235.13
2023-01-21T12:20:02.517Z,98233.28
2023-01-21T12:25:31.897Z,98228.41
2023-01-21T12:30:42.651Z,98237.75
2023-01-21T12:36:17.632Z,98232.66
2023-01-21T12:41:28.675Z,98222.09
2023-01-21T12:46:41.056Z,98230.66
2023-01-21T12:51:46.375Z,98231.97
2023-01-21T12:57:17.049Z,98232.38
2023-01-21T13:02:35.894Z,98224.66
2023-01-21T13:07:48.013Z,98230.94
2023-01-21T13:12:56.271Z,98220.78
2023-01-21T13:18:02.008Z,98226.28
2023-01-21T13:23:23.631Z,98231.84
2023-01-21T13:28:35.718Z,98232.72
2023-01-21T13:33:52.776Z,98234.94
2023-01-21T13:38:59.331Z,98230.00
2023-01-21T13:44:10.037Z,98235.50
2023-01-21T13:49:30.167Z,98245.66
2023-01-21T13:54:46.354Z,98233.00
2023-01-21T14:00:17.434Z,98230.13
2023-01-21T14:05:40.985Z,98239.22
2023-01-21T14:10:53.707Z,98210.22
2023-01-21T14:15:58.078Z,98236.38
2023-01-21T14:21:12.312Z,98247.88
2023-01-21T14:26:32.493Z,98252.25
2023-01-21T14:31:41.620Z,98248.69
2023-01-21T14:37:02.003Z,98264.91
2023-01-21T14:42:10.916Z,98272.25
2023-01-21T14:47:40.313Z,98278.84
2023-01-21T14:52:46.669Z,98280.34
2023-01-21T14:57:52.895Z,98267.22
2023-01-21T15:03:15.691Z,98273.41
2023-01-21T15:08:45.645Z,98290.81
2023-01-21T15:14:07.367Z,98257.84
2023-01-21T15:19:16.638Z,98301.25
2023-01-21T15:24:32.401Z,98285.91
2023-01-21T15:29:36.965Z,98298.03
2023-01-21T15:34:39.032Z,98297.09
2023-01-21T15:39:40.698Z,98300.53
2023-01-21T15:45:21.504Z,98306.78
2023-01-21T15:51:03.104Z,98314.75
2023-01-21T15:56:29.896Z,98322.72
2023-01-21T16:01:40.242Z,98329.44
2023-01-21T16:06:59.174Z,98317.50
2023-01-21T16:12:26.949Z,98335.72
2023-01-21T16:18:01.010Z,98336.97
2023-01-21T16:23:07.293Z,98341.44
2023-01-21T16:28:08.930Z,98341.19
2023-01-21T16:33:15.791Z,98344.41
2023-01-21T16:38:23.797Z,98327.03
2023-01-21T16:43:27.693Z,98330.81
2023-01-21T16:48:32.407Z,98357.47
2023-01-21T16:53:34.066Z,98351.06
2023-01-21T16:58:36.229Z,98351.59
2023-01-21T17:03:38.498Z,98368.09
2023-01-21T17:08:40.704Z,98353.91
2023-01-21T17:13:43.684Z,98368.47
2023-01-21T17:19:01.584Z,98380.16
2023-01-21T17:24:07.757Z,98385.28
2023-01-21T17:29:25.659Z,98392.25
2023-01-21T17:34:29.964Z,98390.53
2023-01-21T17:40:01.086Z,98397.88
2023-01-21T17:45:05.134Z,98375.34
2023-01-21T17:50:23.284Z,98394.66
2023-01-21T17:55:28.617Z,98395.69
2023-01-21T18:00:46.118Z,98404.09
2023-01-21T18:05:49.141Z,98400.03
2023-01-21T18:10:50.918Z,98387.53
2023-01-21T18:15:54.244Z,98406.31
2023-01-21T18:20:56.490Z,98395.63
2023-01-21T18:25:58.808Z,98407.78
2023-01-21T18:31:02.153Z,98402.72
2023-01-21T18:36:04.036Z,98393.84
2023-01-21T18:41:06.231Z,98405.94
2023-01-21T18:46:13.715Z,98397.56
2023-01-21T18:51:15.473Z,98372.81
2023-01-21T18:56:17.236Z,98406.84
2023-01-21T19:01:23.511Z,98421.50
2023-01-21T19:06:25.743Z,98424.63
2023-01-21T19:11:27.448Z,98422.88
2023-01-21T19:16:29.315Z,98424.88
2023-01-21T19:21:30.930Z,98418.09
2023-01-21T19:26:32.945Z,98431.38
2023-01-21T19:31:34.766Z,98419.41
2023-01-21T19:36:36.538Z,98424.88
2023-01-21T19:41:38.153Z,98412.38
2023-01-21T19:46:39.983Z,98432.38
2023-01-21T19:51:42.430Z,98422.28
2023-01-21T19:56:44.236Z,98410.78
2023-01-21T20:01:46.349Z,98417.97
2023-01-21T20:06:48.200Z,98435.03
2023-01-21T20:11:49.828Z,98428.19
2023-01-21T20:16:54.200Z,98425.84
2023-01-21T20:22:02.175Z,98440.56
2023-01-21T20:27:07.726Z,98441.09
2023-01-21T20:32:11.315Z,98445.78
2023-01-21T20:37:15.071Z,98435.59
2023-01-21T20:42:16.684Z,98450.44
2023-01-21T20:47:27.627Z,98442.13
2023-01-21T20:52:39.899Z,98437.44
2023-01-21T20:57:41.959Z,98433.91
2023-01-21T21:02:43.967Z,98448.75
2023-01-21T21:07:45.634Z,98454.25
2023-01-21T21:12:48.835Z,98448.53
2023-01-21T21:17:50.487Z,98448.06
2023-01-21T21:22:52.528Z,98468.59
2023-01-21T21:27:54.785Z,98474.38
2023-01-21T21:32:58.288Z,98469.66
2023-01-21T21:38:05.539Z,98485.00
2023-01-21T21:43:25.769Z,98471.69
2023-01-21T21:48:54.704Z,98487.50
2023-01-21T21:53:56.400Z,98479.88
2023-01-21T21:58:58.091Z,98486.84
